createdAt,value
2023-01-19T00:01:39.593Z,92.83
2023-01-19T00:04:07.716Z,92.79
2023-01-19T00:06:37.351Z,92.84
2023-01-19T00:09:05.293Z,92.82
2023-01-19T00:11:33.131Z,92.85
2023-01-19T00:14:01.075Z,93.09
2023-01-19T00:16:29.178Z,93.44
2023-01-19T00:18:57.056Z,93.04
2023-01-19T00:21:25.046Z,93.69
2023-01-19T00:23:54.320Z,93.97
2023-01-19T00:26:23.168Z,94.12
2023-01-19T00:28:51.283Z,93.78
2023-01-19T00:31:21.722Z,94.40
2023-01-19T00:33:51.580Z,94.22
2023-01-19T00:36:20.583Z,94.72
2023-01-19T00:38:48.653Z,94.76
2023-01-19T00:41:18.454Z,94.91
2023-01-19T00:43:45.628Z,95.27
2023-01-19T00:46:13.653Z,95.16
2023-01-19T00:48:41.753Z,95.21
2023-01-19T00:51:09.791Z,95.95
2023-01-19T00:53:37.723Z,95.52
2023-01-19T00:56:06.070Z,95.85
2023-01-19T00:58:35.656Z,95.82
2023-01-19T01:01:04.911Z,96.41
2023-01-19T01:03:33.719Z,96.33
2023-01-19T01:06:03.572Z,96.58
2023-01-19T01:08:31.584Z,96.76
2023-01-19T01:10:59.434Z,96.68
2023-01-19T01:13:28.466Z,96.40
2023-01-19T01:15:58.511Z,97.06
2023-01-19T01:18:26.417Z,96.84
2023-01-19T01:21:01.366Z,96.95
2023-01-19T01:23:29.387Z,96.63
2023-01-19T01:25:57.221Z,96.75
2023-01-19T01:28:25.510Z,96.99
2023-01-19T01:30:55.142Z,97.37
2023-01-19T01:33:41.113Z,96.91
2023-01-19T01:36:10.598Z,96.67
2023-01-19T01:38:39.288Z,97.54
2023-01-19T01:41:07.385Z,97.04
2023-01-19T01:43:46.794Z,97.04
2023-01-19T01:46:17.038Z,96.91
2023-01-19T01:48:52.426Z,96.58
2023-01-19T01:51:25.530Z,96.43
2023-01-19T01:54:01.336Z,96.27
2023-01-19T01:57:02.794Z,96.33
2023-01-19T01:59:39.370Z,96.55
2023-01-19T02:02:28.133Z,97.25
2023-01-19T02:05:04.019Z,97.51
2023-01-19T02:07:57.009Z,97.50
2023-01-19T02:10:42.440Z,97.90
2023-01-19T02:13:25.772Z,97.99
2023-01-19T02:15:55.570Z,97.54
2023-01-19T02:18:25.578Z,97.48
2023-01-19T02:21:01.820Z,97.63
2023-01-19T02:23:50.557Z,97.98
2023-01-19T02:26:21.776Z,97.61
2023-01-19T02:28:54.099Z,97.93
2023-01-19T02:31:22.305Z,97.95
2023-01-19T02:34:04.456Z,97.54
2023-01-19T02:36:36.854Z,97.69
2023-01-19T02:39:09.419Z,97.53
2023-01-19T02:41:45.285Z,97.53
2023-01-19T02:44:16.290Z,97.03
2023-01-19T02:46:44.099Z,97.12
2023-01-19T02:49:14.905Z,96.81
2023-01-19T02:51:45.101Z,96.58
2023-01-19T02:54:31.096Z,96.66
2023-01-19T02:57:27.788Z,96.13
2023-01-19T03:00:09.704Z,96.88
2023-01-19T03:02:47.042Z,96.82
2023-01-19T03:05:30.554Z,96.37
2023-01-19T03:08:07.736Z,96.78
2023-01-19T03:10:46.628Z,96.52
2023-01-19T03:13:24.694Z,96.72
2023-01-19T03:15:56.622Z,96.84
2023-01-19T03:18:28.036Z,96.65
2023-01-19T03:20:58.952Z,96.86
2023-01-19T03:23:31.914Z,96.74
2023-01-19T03:26:02.895Z,96.81
2023-01-19T03:28:31.463Z,96.38
2023-01-19T03:31:04.348Z,97.02
2023-01-19T03:33:35.122Z,97.27
2023-01-19T03:36:08.974Z,97.40
2023-01-19T03:38:39.482Z,96.64
2023-01-19T03:41:15.510Z,96.53
2023-01-19T03:43:45.448Z,96.45
2023-01-19T03:46:17.318Z,96.17
2023-01-19T03:48:46.013Z,95.84
2023-01-19T03:51:14.491Z,95.90
2023-01-19T03:53:43.027Z,96.43
2023-01-19T03:56:19.376Z,96.61
2023-01-19T03:58:47.541Z,96.59
2023-01-19T04:01:16.119Z,96.30
2023-01-19T04:03:44.758Z,96.11
2023-01-19T04:06:12.800Z,96.50
2023-01-19T04:08:44.392Z,96.20
2023-01-19T04:11:13.269Z,96.15
2023-01-19T04:13:42.554Z,96.57
2023-01-19T04:16:12.399Z,96.18
2023-01-19T04:18:42.149Z,96.37
2023-01-19T04:21:10.517Z,95.73
2023-01-19T04:23:38.368Z,95.66
2023-01-19T04:26:08.196Z,96.10
2023-01-19T04:28:37.379Z,95.97
2023-01-19T04:31:07.641Z,96.00
2023-01-19T04:33:35.684Z,95.82
2023-01-19T04:36:04.257Z,95.56
2023-01-19T04:38:32.148Z,96.27
2023-01-19T04:41:00.015Z,95.67
2023-01-19T04:43:27.930Z,95.69
2023-01-19T04:45:56.184Z,96.01
2023-01-19T04:48:25.493Z,95.96
2023-01-19T04:50:53.945Z,95.39
2023-01-19T04:53:22.200Z,96.07
2023-01-19T04:55:54.535Z,96.31
2023-01-19T04:58:22.430Z,95.96
2023-01-19T05:01:15.875Z,95.92
2023-01-19T05:03:45.317Z,95.86
2023-01-19T05:06:13.173Z,96.11
2023-01-19T05:08:40.961Z,96.30
2023-01-19T05:11:08.801Z,95.61
2023-01-19T05:13:37.357Z,96.07
2023-01-19T05:16:06.200Z,96.52
2023-01-19T05:18:37.090Z,95.76
2023-01-19T05:21:07.542Z,96.02
2023-01-19T05:23:35.534Z,96.02
2023-01-19T05:26:04.026Z,96.05
2023-01-19T05:28:33.551Z,95.11
2023-01-19T05:31:01.490Z,95.07
2023-01-19T05:33:29.323Z,95.39
2023-01-19T05:35:57.409Z,94.74
2023-01-19T05:38:35.457Z,94.52
2023-01-19T05:41:04.461Z,94.28
2023-01-19T05:43:32.323Z,94.50
2023-01-19T05:46:00.621Z,93.80
2023-01-19T05:48:28.722Z,94.28
2023-01-19T05:50:59.309Z,93.46
2023-01-19T05:53:29.216Z,93.88
2023-01-19T05:56:01.317Z,93.39
2023-01-19T05:58:29.409Z,94.76
2023-01-19T06:00:57.340Z,94.71
2023-01-19T06:03:25.367Z,94.49
2023-01-19T06:05:53.158Z,95.48
2023-01-19T06:08:20.985Z,96.17
2023-01-19T06:10:50.160Z,96.70
2023-01-19T06:13:18.194Z,97.05
2023-01-19T06:15:46.840Z,98.93
2023-01-19T06:18:15.829Z,100.00
2023-01-19T06:20:43.826Z,100.00
2023-01-19T06:23:11.705Z,100.00
2023-01-19T06:25:39.574Z,100.00
2023-01-19T06:28:08.692Z,100.00
2023-01-19T06:30:36.585Z,100.00
2023-01-19T06:33:04.517Z,100.00
2023-01-19T06:35:32.358Z,100.00
2023-01-19T06:38:00.136Z,100.00
2023-01-19T06:40:27.970Z,100.00
2023-01-19T06:42:55.815Z,100.00
2023-01-19T06:45:24.954Z,100.00
2023-01-19T06:47:52.770Z,100.00
2023-01-19T06:50:20.851Z,100.00
2023-01-19T06:52:50.978Z,100.00
2023-01-19T06:55:19.087Z,100.00
2023-01-19T06:57:47.641Z,100.00
2023-01-19T07:00:17.248Z,100.00
2023-01-19T07:02:46.588Z,100.00
2023-01-19T07:05:14.651Z,100.00
2023-01-19T07:07:43.269Z,100.00
2023-01-19T07:10:13.023Z,100.00
2023-01-19T07:12:40.911Z,100.00
2023-01-19T07:15:11.695Z,100.00
2023-01-19T07:17:39.546Z,100.00
2023-01-19T07:20:14.349Z,100.00
2023-01-19T07:22:43.496Z,100.00
2023-01-19T07:25:11.589Z,100.00
2023-01-19T07:27:40.439Z,100.00
2023-01-19T07:30:09.588Z,100.00
2023-01-19T07:32:38.259Z,100.00
2023-01-19T07:35:08.088Z,100.00
2023-01-19T07:37:36.339Z,100.00
2023-01-19T07:40:04.603Z,100.00
2023-01-19T07:42:32.419Z,100.00
2023-01-19T07:45:00.957Z,100.00
2023-01-19T07:47:28.779Z,100.00
2023-01-19T07:49:56.610Z,100.00
2023-01-19T07:52:25.756Z,100.00
2023-01-19T07:54:53.582Z,100.00
2023-01-19T07:57:22.036Z,100.00
2023-01-19T07:59:49.860Z,100.00
2023-01-19T08:02:17.751Z,100.00
2023-01-19T08:04:48.511Z,100.00
2023-01-19T08:07:16.489Z,100.00
2023-01-19T08:09:45.658Z,100.00
2023-01-19T08:12:13.449Z,100.00
2023-01-19T08:14:41.368Z,100.00
2023-01-19T08:17:13.895Z,100.00
2023-01-19T08:19:43.338Z,100.00
2023-01-19T08:22:11.123Z,100.00
2023-01-19T08:24:39.116Z,100.00
2023-01-19T08:27:09.782Z,100.00
2023-01-19T08:29:38.222Z,100.00
2023-01-19T08:32:06.986Z,100.00
2023-01-19T08:34:35.017Z,100.00
2023-01-19T08:37:02.801Z,100.00
2023-01-19T08:39:30.559Z,100.00
2023-01-19T08:41:59.645Z,100.00
2023-01-19T08:44:29.128Z,100.00
2023-01-19T08:46:56.982Z,100.00
2023-01-19T08:49:24.933Z,100.00
2023-01-19T08:51:52.732Z,100.00
2023-01-19T08:54:21.703Z,100.00
2023-01-19T08:56:49.868Z,100.00
2023-01-19T08:59:18.153Z,100.00
2023-01-19T09:01:48.113Z,100.00
2023-01-19T09:04:16.093Z,100.00
2023-01-19T09:06:43.883Z,100.00
2023-01-19T09:09:11.802Z,100.00
2023-01-19T09:11:39.561Z,100.00
2023-01-19T09:14:08.331Z,100.00
2023-01-19T09:16:36.313Z,100.00
2023-01-19T09:19:08.481Z,100.00
2023-01-19T09:21:36.488Z,100.00
2023-01-19T09:24:04.501Z,100.00
2023-01-19T09:26:33.281Z,100.00
2023-01-19T09:29:01.191Z,100.00
2023-01-19T09:31:29.206Z,100.00
2023-01-19T09:33:57.045Z,100.00
2023-01-19T09:36:26.327Z,100.00
2023-01-19T09:38:54.146Z,100.00
2023-01-19T09:41:24.985Z,100.00
2023-01-19T09:43:57.680Z,100.00
2023-01-19T09:46:31.147Z,100.00
2023-01-19T09:49:04.809Z,100.00
2023-01-19T09:51:37.460Z,100.00
2023-01-19T09:54:12.064Z,100.00
2023-01-19T09:56:40.064Z,100.00
2023-01-19T09:59:20.648Z,100.00
2023-01-19T10:02:05.578Z,100.00
2023-01-19T10:04:38.678Z,100.00
2023-01-19T10:07:17.124Z,100.00
2023-01-19T10:10:08.359Z,100.00
2023-01-19T10:12:44.660Z,100.00
2023-01-19T10:15:24.549Z,100.00
2023-01-19T10:18:03.890Z,100.00
2023-01-19T10:20:37.682Z,100.00
2023-01-19T10:23:26.300Z,100.00
2023-01-19T10:25:56.045Z,100.00
2023-01-19T10:28:26.667Z,100.00
2023-01-19T10:30:56.357Z,100.00
2023-01-19T10:33:24.490Z,100.00
2023-01-19T10:35:52.781Z,100.00
2023-01-19T10:38:22.717Z,100.00
2023-01-19T10:40:58.443Z,100.00
2023-01-19T10:43:41.552Z,100.00
2023-01-19T10:46:18.543Z,100.00
2023-01-19T10:48:50.410Z,100.00
2023-01-19T10:51:19.049Z,100.00
2023-01-19T10:53:58.778Z,100.00
2023-01-19T10:56:30.882Z,100.00
2023-01-19T10:59:01.693Z,100.00
2023-01-19T11:01:31.157Z,100.00
2023-01-19T11:04:05.455Z,100.00
2023-01-19T11:06:35.638Z,100.00
2023-01-19T11:09:18.522Z,100.00
2023-01-19T11:11:50.046Z,100.00
2023-01-19T11:14:20.938Z,100.00
2023-01-19T11:16:51.525Z,100.00
2023-01-19T11:19:27.505Z,100.00
2023-01-19T11:22:10.996Z,100.00
2023-01-19T11:24:41.046Z,100.00
2023-01-19T11:27:08.950Z,100.00
2023-01-19T11:29:38.907Z,100.00
2023-01-19T11:32:21.142Z,100.00
2023-01-19T11:34:49.569Z,100.00
2023-01-19T11:37:34.500Z,100.00
2023-01-19T11:40:08.679Z,100.00
2023-01-19T11:42:37.627Z,100.00
2023-01-19T11:45:13.577Z,100.00
2023-01-19T11:47:44.317Z,100.00
2023-01-19T11:50:22.412Z,100.00
2023-01-19T11:52:54.468Z,100.00
2023-01-19T11:55:38.970Z,100.00
2023-01-19T11:58:07.093Z,100.00
2023-01-19T12:00:38.577Z,100.00
2023-01-19T12:03:15.051Z,100.00
2023-01-19T12:05:48.731Z,100.00
2023-01-19T12:08:21.756Z,100.00
2023-01-19T12:10:54.187Z,100.00
2023-01-19T12:13:24.232Z,100.00
2023-01-19T12:15:57.749Z,100.00
2023-01-19T12:18:29.335Z,100.00
2023-01-19T12:20:58.701Z,100.00
2023-01-19T12:23:36.775Z,100.00
2023-01-19T12:26:31.846Z,98.79
2023-01-19T12:29:04.638Z,96.68
2023-01-19T12:31:32.717Z,96.33
2023-01-19T12:34:36.038Z,94.23
2023-01-19T12:37:05.726Z,93.42
2023-01-19T12:39:35.336Z,91.92
2023-01-19T12:42:14.512Z,91.05
2023-01-19T12:44:43.437Z,89.61
2023-01-19T12:47:24.439Z,88.57
2023-01-19T12:49:56.432Z,87.62
2023-01-19T12:52:34.170Z,87.71
2023-01-19T12:55:07.702Z,87.87
2023-01-19T12:57:41.711Z,88.75
2023-01-19T13:00:30.480Z,89.51
2023-01-19T13:02:59.894Z,89.62
2023-01-19T13:05:57.859Z,89.13
2023-01-19T13:08:29.756Z,87.47
2023-01-19T13:11:20.727Z,88.56
2023-01-19T13:14:28.213Z,89.69
2023-01-19T13:17:22.285Z,90.00
2023-01-19T13:19:59.401Z,87.91
2023-01-19T13:23:04.587Z,88.58
2023-01-19T13:25:36.412Z,87.42
2023-01-19T13:28:10.434Z,87.43
2023-01-19T13:30:48.342Z,87.24
2023-01-19T13:33:22.547Z,88.11
2023-01-19T13:35:53.828Z,88.58
2023-01-19T13:38:24.031Z,88.26
2023-01-19T13:40:52.885Z,88.83
2023-01-19T13:43:27.674Z,88.28
2023-01-19T13:45:56.383Z,89.29
2023-01-19T13:48:26.565Z,88.96
2023-01-19T13:50:59.624Z,90.41
2023-01-19T13:53:27.825Z,90.08
2023-01-19T13:56:20.455Z,89.96
2023-01-19T13:59:15.603Z,88.54
2023-01-19T14:01:44.117Z,88.28
2023-01-19T14:04:28.931Z,88.42
2023-01-19T14:06:59.778Z,87.73
2023-01-19T14:09:27.635Z,88.01
2023-01-19T14:12:12.943Z,89.05
2023-01-19T14:14:41.076Z,88.62
2023-01-19T14:17:23.247Z,88.28
2023-01-19T14:19:53.866Z,87.92
2023-01-19T14:22:22.379Z,88.18
2023-01-19T14:24:50.208Z,87.71
2023-01-19T14:27:20.981Z,88.02
2023-01-19T14:29:50.621Z,88.75
2023-01-19T14:32:20.713Z,88.31
2023-01-19T14:34:51.121Z,88.50
2023-01-19T14:37:29.012Z,88.59
2023-01-19T14:40:04.437Z,87.77
2023-01-19T14:42:35.847Z,88.53
2023-01-19T14:45:07.359Z,88.61
2023-01-19T14:47:38.636Z,88.87
2023-01-19T14:50:20.577Z,89.97
2023-01-19T14:52:56.293Z,89.58
2023-01-19T14:55:28.892Z,90.47
2023-01-19T14:57:56.718Z,90.60
2023-01-19T15:00:25.252Z,90.11
2023-01-19T15:02:53.398Z,90.71
2023-01-19T15:05:21.500Z,90.46
2023-01-19T15:07:49.367Z,91.18
2023-01-19T15:10:21.739Z,90.93
2023-01-19T15:12:50.811Z,91.59
2023-01-19T15:15:22.655Z,91.89
2023-01-19T15:17:51.269Z,91.00
2023-01-19T15:20:20.825Z,91.64
2023-01-19T15:22:49.559Z,91.59
2023-01-19T15:25:20.696Z,91.93
2023-01-19T15:27:49.622Z,91.84
2023-01-19T15:30:20.566Z,91.07
2023-01-19T15:32:48.634Z,91.21
2023-01-19T15:35:19.150Z,91.29
2023-01-19T15:37:47.453Z,91.30
2023-01-19T15:40:16.254Z,90.61
2023-01-19T15:42:45.919Z,91.48
2023-01-19T15:45:35.870Z,90.96
2023-01-19T15:48:05.794Z,91.98
2023-01-19T15:50:34.481Z,91.67
2023-01-19T15:53:02.610Z,92.15
2023-01-19T15:55:30.398Z,92.78
2023-01-19T15:58:01.590Z,93.01
2023-01-19T16:00:32.427Z,92.30
2023-01-19T16:03:02.078Z,92.09
2023-01-19T16:05:42.516Z,91.97
2023-01-19T16:08:11.580Z,91.57
2023-01-19T16:10:39.445Z,91.76
2023-01-19T16:13:08.873Z,91.25
2023-01-19T16:15:37.404Z,91.29
2023-01-19T16:18:06.131Z,92.05
2023-01-19T16:20:34.082Z,92.06
2023-01-19T16:23:14.603Z,92.61
2023-01-19T16:25:43.098Z,92.52
2023-01-19T16:28:12.411Z,92.86
2023-01-19T16:30:40.373Z,93.84
2023-01-19T16:33:11.505Z,92.85
2023-01-19T16:35:39.541Z,93.71
2023-01-19T16:38:09.299Z,94.12
2023-01-19T16:40:37.581Z,93.63
2023-01-19T16:43:05.503Z,94.15
2023-01-19T16:45:34.752Z,94.37
2023-01-19T16:48:02.793Z,94.09
2023-01-19T16:50:30.565Z,94.40
2023-01-19T16:52:59.026Z,94.47
2023-01-19T16:55:26.943Z,95.01
2023-01-19T16:57:56.382Z,94.46
2023-01-19T17:00:24.525Z,94.02
2023-01-19T17:02:53.818Z,93.84
2023-01-19T17:05:22.242Z,94.85
2023-01-19T17:07:50.053Z,95.30
2023-01-19T17:10:18.237Z,94.58
2023-01-19T17:12:46.493Z,94.61
2023-01-19T17:15:14.517Z,94.48
2023-01-19T17:17:42.469Z,94.86
2023-01-19T17:20:13.036Z,94.39
2023-01-19T17:22:41.144Z,93.98
2023-01-19T17:25:09.702Z,94.51
2023-01-19T17:27:37.526Z,94.24
2023-01-19T17:30:06.014Z,95.31
2023-01-19T17:32:33.818Z,94.60
2023-01-19T17:35:02.146Z,94.65
2023-01-19T17:37:31.613Z,94.98
2023-01-19T17:39:59.640Z,95.27
2023-01-19T17:42:28.524Z,94.42
2023-01-19T17:44:58.751Z,94.76
2023-01-19T17:47:28.227Z,95.26
2023-01-19T17:49:56.154Z,95.48
2023-01-19T17:52:23.964Z,96.05
2023-01-19T17:54:53.247Z,96.84
2023-01-19T17:57:21.144Z,96.13
2023-01-19T17:59:48.989Z,95.62
2023-01-19T18:02:16.926Z,94.67
2023-01-19T18:04:44.990Z,96.46
2023-01-19T18:07:12.810Z,95.86
2023-01-19T18:09:40.630Z,96.90
2023-01-19T18:12:10.126Z,95.34
2023-01-19T18:14:38.683Z,96.65
2023-01-19T18:17:06.723Z,97.14
2023-01-19T18:19:34.870Z,97.25
2023-01-19T18:22:03.398Z,94.80
2023-01-19T18:24:31.295Z,93.54
2023-01-19T18:26:59.110Z,91.73
2023-01-19T18:32:27.108Z,92.45
2023-01-19T18:34:55.102Z,93.30
2023-01-19T18:37:23.001Z,93.39
2023-01-19T18:39:50.860Z,93.82
2023-01-19T18:42:19.014Z,93.76
2023-01-19T18:44:48.286Z,93.21
2023-01-19T18:47:16.168Z,94.02
2023-01-19T18:49:44.252Z,93.48
2023-01-19T18:52:12.330Z,93.88
2023-01-19T18:54:40.130Z,94.52
2023-01-19T18:57:08.038Z,95.71
2023-01-19T18:59:35.870Z,96.74
2023-01-19T19:02:06.748Z,97.53
2023-01-19T19:04:34.732Z,98.48
2023-01-19T19:07:02.534Z,99.39
2023-01-19T19:09:30.437Z,99.43
2023-01-19T19:11:58.320Z,100.00
2023-01-19T19:14:26.359Z,99.63
2023-01-19T19:16:54.216Z,99.92
2023-01-19T19:19:23.412Z,100.00
2023-01-19T19:21:52.109Z,100.00
2023-01-19T19:24:20.277Z,100.00
2023-01-19T19:26:48.164Z,100.00
2023-01-19T19:29:15.951Z,99.84
2023-01-19T19:31:43.841Z,99.81
2023-01-19T19:34:12.650Z,99.90
2023-01-19T19:36:42.067Z,99.68
2023-01-19T19:39:10.147Z,99.45
2023-01-19T19:41:38.818Z,99.15
2023-01-19T19:44:06.858Z,100.00
2023-01-19T19:46:34.751Z,99.31
2023-01-19T19:49:02.622Z,99.72
2023-01-19T19:51:30.464Z,99.08
2023-01-19T19:54:01.844Z,99.80
2023-01-19T19:56:30.973Z,99.75
2023-01-19T19:59:00.889Z,100.00
2023-01-19T20:01:33.551Z,100.00
2023-01-19T20:04:07.045Z,99.67
2023-01-19T20:06:38.590Z,97.55
2023-01-19T20:09:09.803Z,97.00
2023-01-19T20:11:38.780Z,95.40
2023-01-19T20:14:06.796Z,94.33
2023-01-19T20:16:34.696Z,95.83
2023-01-19T20:19:02.885Z,94.59
2023-01-19T20:21:32.320Z,94.79
2023-01-19T20:24:01.937Z,93.11
2023-01-19T20:26:40.158Z,93.81
2023-01-19T20:29:10.133Z,93.39
2023-01-19T20:31:56.181Z,93.57
2023-01-19T20:34:27.894Z,94.77
2023-01-19T20:36:56.814Z,96.06
2023-01-19T20:39:25.832Z,96.07
2023-01-19T20:41:55.032Z,96.27
2023-01-19T20:44:26.594Z,97.01
2023-01-19T20:46:55.729Z,97.41
2023-01-19T20:49:23.927Z,98.26
2023-01-19T20:51:52.649Z,98.99
2023-01-19T20:54:24.290Z,100.00
2023-01-19T20:56:52.235Z,99.09
2023-01-19T20:59:21.452Z,99.22
2023-01-19T21:01:49.816Z,99.73
2023-01-19T21:04:18.374Z,99.69
2023-01-19T21:06:46.303Z,100.00
2023-01-19T21:09:14.193Z,99.85
2023-01-19T21:11:42.031Z,100.00
2023-01-19T21:14:09.967Z,100.00
2023-01-19T21:16:39.188Z,100.00
2023-01-19T21:19:07.093Z,100.00
2023-01-19T21:21:34.936Z,100.00
2023-01-19T21:24:04.586Z,100.00
2023-01-19T21:26:33.341Z,100.00
2023-01-19T21:29:02.844Z,100.00
2023-01-19T21:31:31.345Z,100.00
2023-01-19T21:34:00.726Z,100.00
2023-01-19T21:36:28.516Z,100.00
2023-01-19T21:39:00.485Z,100.00
2023-01-19T21:41:30.416Z,100.00
2023-01-19T21:43:58.493Z,100.00
2023-01-19T21:46:29.018Z,100.00
2023-01-19T21:48:57.222Z,100.00
2023-01-19T21:51:26.494Z,100.00
2023-01-19T21:53:55.966Z,100.00
2023-01-19T21:56:23.926Z,100.00
2023-01-19T21:58:51.782Z,100.00
2023-01-19T22:01:20.727Z,100.00
2023-01-19T22:03:48.586Z,100.00
2023-01-19T22:06:16.767Z,99.78
2023-01-19T22:08:47.046Z,99.57
2023-01-19T22:11:17.159Z,99.99
2023-01-19T22:13:45.638Z,99.13
2023-01-19T22:16:15.989Z,98.82
2023-01-19T22:18:46.303Z,99.68
2023-01-19T22:21:16.153Z,97.78
2023-01-19T22:23:45.688Z,97.64
2023-01-19T22:26:13.651Z,96.96
2023-01-19T22:28:41.513Z,96.94
2023-01-19T22:31:12.490Z,95.41
2023-01-19T22:33:40.627Z,96.61
2023-01-19T22:36:14.984Z,98.91
2023-01-19T22:38:44.319Z,97.60
2023-01-19T22:41:15.251Z,97.42
2023-01-19T22:43:43.648Z,96.98
2023-01-19T22:46:11.943Z,96.97
2023-01-19T22:48:40.413Z,97.78
2023-01-19T22:51:08.533Z,97.76
2023-01-19T22:53:36.352Z,96.27
2023-01-19T22:56:12.154Z,96.15
2023-01-19T22:58:41.570Z,96.87
2023-01-19T23:01:10.873Z,96.93
2023-01-19T23:03:39.299Z,97.22
2023-01-19T23:06:08.452Z,96.49
2023-01-19T23:08:37.063Z,96.84
2023-01-19T23:11:06.346Z,96.60
2023-01-19T23:13:34.780Z,95.67
2023-01-19T23:16:04.622Z,95.90
2023-01-19T23:18:33.343Z,95.03
2023-01-19T23:21:04.885Z,96.04
2023-01-19T23:23:33.300Z,95.53
2023-01-19T23:26:02.365Z,96.05
2023-01-19T23:28:30.240Z,96.88
2023-01-19T23:30:58.617Z,97.00
2023-01-19T23:33:28.077Z,96.13
2023-01-19T23:35:56.517Z,96.48
2023-01-19T23:38:24.413Z,96.91
2023-01-19T23:40:52.266Z,98.13
2023-01-19T23:43:20.577Z,97.29
2023-01-19T23:45:49.013Z,97.31
2023-01-19T23:48:16.906Z,96.78
2023-01-19T23:50:46.149Z,97.82
2023-01-19T23:53:14.144Z,98.22
2023-01-19T23:55:41.958Z,97.50
2023-01-19T23:58:09.810Z,97.64
